createdAt,value
2022-09-09T00:01:47.630Z,13.70
2022-09-09T00:04:20.166Z,13.80
2022-09-09T00:07:26.018Z,13.80
2022-09-09T00:10:22.071Z,13.80
2022-09-09T00:12:58.724Z,13.80
2022-09-09T00:15:43.779Z,13.80
2022-09-09T00:18:30.209Z,13.80
2022-09-09T00:21:07.072Z,13.90
2022-09-09T00:23:38.753Z,13.90
2022-09-09T00:26:31.452Z,13.90
2022-09-09T00:29:19.113Z,14.00
2022-09-09T00:31:45.877Z,13.90
2022-09-09T00:34:21.471Z,13.90
2022-09-09T00:36:50.265Z,13.90
2022-09-09T00:39:30.760Z,13.90
2022-09-09T00:42:40.900Z,14.00
2022-09-09T00:45:41.781Z,14.00
2022-09-09T00:48:12.646Z,14.00
2022-09-09T00:50:56.388Z,14.00
2022-09-09T00:53:39.735Z,14.00
2022-09-09T00:56:22.216Z,13.90
2022-09-09T00:59:11.881Z,14.00
2022-09-09T01:01:40.461Z,14.00
2022-09-09T01:04:17.008Z,13.90
2022-09-09T01:06:47.146Z,13.80
2022-09-09T01:09:48.975Z,13.90
2022-09-09T01:12:18.163Z,13.90
2022-09-09T01:14:49.640Z,13.80
2022-09-09T01:17:27.584Z,13.80
2022-09-09T01:20:07.012Z,13.90
2022-09-09T01:22:51.150Z,13.80
2022-09-09T01:25:40.092Z,13.80
2022-09-09T01:28:11.179Z,13.70
2022-09-09T01:30:41.414Z,13.70
2022-09-09T01:33:18.805Z,13.70
2022-09-09T01:36:08.893Z,13.60
2022-09-09T01:38:36.760Z,13.60
2022-09-09T01:41:03.744Z,13.60
2022-09-09T01:43:30.646Z,13.60
2022-09-09T01:46:01.215Z,13.50
2022-09-09T01:48:29.257Z,13.40
2022-09-09T01:50:55.794Z,13.40
2022-09-09T01:53:23.639Z,13.40
2022-09-09T01:56:08.427Z,13.40
2022-09-09T01:59:01.481Z,13.40
2022-09-09T02:02:08.823Z,13.30
2022-09-09T02:04:51.347Z,13.30
2022-09-09T02:12:43.161Z,13.40
2022-09-09T02:15:21.337Z,13.20
2022-09-09T02:17:50.975Z,13.30
2022-09-09T02:20:20.318Z,13.20
2022-09-09T02:22:50.389Z,13.20
2022-09-09T02:25:19.895Z,13.20
2022-09-09T02:27:48.625Z,13.20
2022-09-09T02:32:46.737Z,13.30
2022-09-09T02:35:15.995Z,13.10
2022-09-09T02:37:46.905Z,13.20
2022-09-09T02:40:16.595Z,13.30
2022-09-09T02:42:46.269Z,13.40
2022-09-09T02:45:17.396Z,13.30
2022-09-09T02:48:03.810Z,13.30
2022-09-09T02:50:35.672Z,13.20
2022-09-09T02:53:19.044Z,13.30
2022-09-09T02:55:58.787Z,13.30
2022-09-09T08:01:54.337Z,15.60
2022-09-09T08:04:22.661Z,15.60
2022-09-09T08:06:53.734Z,15.70
2022-09-09T08:09:21.515Z,15.80
2022-09-09T08:11:49.119Z,15.80
2022-09-09T08:14:16.053Z,16.00
2022-09-09T08:16:48.486Z,16.00
2022-09-09T08:24:15.901Z,16.20
2022-09-09T08:26:44.992Z,16.20
2022-09-09T08:29:14.038Z,16.20
2022-09-09T08:31:43.471Z,16.30
2022-09-09T08:36:41.463Z,16.40
2022-09-09T08:39:09.844Z,16.50
2022-09-09T08:41:54.945Z,16.50
2022-09-09T08:44:28.488Z,16.60
2022-09-09T08:47:30.596Z,16.60
2022-09-09T08:50:14.056Z,16.70
2022-09-09T08:52:52.632Z,16.80
2022-09-09T08:57:58.677Z,16.90
2022-09-09T09:00:43.320Z,17.10
2022-09-09T09:03:28.137Z,17.20
2022-09-09T09:06:21.100Z,17.20
2022-09-09T09:08:59.689Z,17.30
2022-09-09T09:11:26.271Z,17.40
2022-09-09T09:14:03.764Z,17.40
2022-09-09T09:17:02.638Z,17.60
2022-09-09T09:19:31.035Z,17.70
2022-09-09T09:22:16.566Z,17.70
2022-09-09T09:24:52.829Z,17.70
2022-09-09T09:27:53.531Z,17.80
2022-09-09T09:30:29.443Z,17.90
2022-09-09T09:33:04.371Z,18.00
2022-09-09T09:35:30.916Z,18.10
2022-09-09T09:40:58.630Z,18.30
2022-09-09T09:43:33.737Z,18.70
2022-09-09T09:46:16.735Z,18.80
2022-09-09T09:51:17.134Z,18.80
2022-09-09T09:53:44.208Z,19.10
2022-09-09T09:58:45.612Z,19.30
2022-09-09T10:01:28.783Z,19.40
2022-09-09T10:03:59.528Z,19.50
2022-09-09T10:19:13.940Z,20.40
2022-09-09T10:22:16.921Z,20.40
2022-09-09T10:25:02.354Z,20.50
2022-09-09T10:27:45.218Z,20.60
2022-09-09T10:30:25.009Z,20.50
2022-09-09T10:35:59.045Z,20.60
2022-09-09T10:38:42.236Z,20.70
2022-09-09T10:44:35.381Z,20.80
2022-09-09T10:47:39.710Z,21.10
2022-09-09T10:53:17.589Z,21.00
2022-09-09T10:55:47.015Z,21.10
2022-09-09T10:58:24.614Z,21.20
2022-09-09T11:00:58.251Z,21.20
2022-09-09T11:03:30.448Z,21.20
2022-09-09T11:06:05.334Z,21.20
2022-09-09T11:08:39.032Z,21.20
2022-09-09T11:11:22.711Z,21.20
2022-09-09T11:13:52.530Z,21.20
2022-09-09T11:16:44.562Z,21.20
2022-09-09T11:19:36.787Z,21.20
2022-09-09T11:22:16.543Z,21.20
2022-09-09T11:24:49.869Z,21.20
2022-09-09T11:27:56.699Z,21.30
2022-09-09T11:30:55.060Z,21.30
2022-09-09T11:41:22.046Z,21.50
2022-09-09T11:43:54.787Z,21.40
2022-09-09T11:46:34.480Z,21.50
2022-09-09T11:49:07.860Z,21.50
2022-09-09T11:51:36.262Z,21.50
2022-09-09T11:54:24.371Z,21.50
2022-09-09T11:56:50.928Z,21.60
2022-09-09T11:59:28.647Z,21.60
2022-09-09T12:02:22.890Z,21.60
2022-09-09T12:10:08.099Z,21.80
2022-09-09T12:12:40.426Z,22.00
2022-09-09T12:20:23.667Z,22.20
2022-09-09T12:25:54.276Z,22.40
2022-09-09T12:28:42.355Z,22.50
2022-09-09T12:31:27.684Z,22.50
2022-09-09T12:33:54.243Z,22.50
2022-09-09T12:36:25.120Z,22.40
2022-09-09T12:38:53.188Z,22.40
2022-09-09T12:41:27.784Z,22.30
2022-09-09T12:44:10.459Z,22.30
2022-09-09T12:46:43.452Z,22.30
2022-09-09T12:49:34.900Z,22.20
2022-09-09T12:52:10.782Z,22.10
2022-09-09T12:54:38.773Z,22.00
2022-09-09T12:57:06.599Z,21.70
2022-09-09T12:59:40.172Z,21.60
2022-09-09T13:02:21.091Z,21.10
2022-09-09T13:04:48.205Z,20.50
2022-09-09T13:07:17.251Z,19.80
2022-09-09T13:09:45.740Z,18.80
2022-09-09T13:14:47.864Z,17.90
2022-09-09T13:17:26.640Z,17.60
2022-09-09T13:19:54.417Z,17.40
2022-09-09T13:22:53.675Z,17.00
2022-09-09T13:25:26.664Z,16.90
2022-09-09T13:30:41.068Z,16.60
2022-09-09T13:33:46.134Z,16.50
2022-09-09T13:38:53.634Z,16.50
2022-09-09T13:41:22.446Z,16.50
2022-09-09T13:43:49.355Z,16.50
2022-09-09T13:46:34.667Z,16.50
2022-09-09T13:49:04.018Z,16.40
2022-09-09T13:51:35.117Z,16.40
2022-09-09T13:54:02.108Z,16.40
2022-09-09T13:56:28.867Z,16.40
2022-09-09T13:58:55.405Z,16.40
2022-09-09T14:01:24.307Z,16.40
2022-09-09T14:03:53.907Z,16.40
2022-09-09T14:06:22.768Z,16.40
2022-09-09T14:08:51.383Z,16.40
2022-09-09T14:11:19.431Z,16.40
2022-09-09T14:13:45.966Z,16.40
2022-09-09T14:16:12.592Z,16.40
2022-09-09T14:18:39.868Z,16.40
2022-09-09T14:21:06.438Z,16.40
2022-09-09T14:23:33.254Z,16.40
2022-09-09T14:25:59.805Z,16.40
2022-09-09T14:33:42.423Z,16.30
2022-09-09T14:36:10.059Z,16.30
2022-09-09T14:38:42.941Z,16.30
2022-09-09T14:41:17.705Z,16.30
2022-09-09T14:43:45.178Z,16.30
2022-09-09T14:46:14.748Z,16.30
2022-09-09T14:48:42.154Z,16.30
2022-09-09T14:51:38.053Z,16.30
2022-09-09T14:54:04.604Z,16.20
2022-09-09T14:56:35.302Z,16.20
2022-09-09T14:59:02.860Z,16.30
2022-09-09T15:01:30.535Z,16.30
2022-09-09T15:04:02.724Z,16.30
2022-09-09T15:06:32.557Z,16.30
2022-09-09T15:08:59.797Z,16.30
2022-09-09T15:11:32.900Z,16.30
2022-09-09T15:13:59.519Z,16.40
2022-09-09T15:16:29.057Z,16.30
2022-09-09T15:18:58.851Z,16.30
2022-09-09T15:21:27.246Z,16.30
2022-09-09T15:23:54.624Z,16.30
2022-09-09T15:26:21.778Z,16.40
2022-09-09T15:28:50.620Z,16.40
2022-09-09T15:31:20.207Z,16.40
2022-09-09T15:33:53.284Z,16.40
2022-09-09T15:36:27.052Z,16.40
2022-09-09T15:38:53.972Z,16.40
2022-09-09T15:41:22.812Z,16.40
2022-09-09T15:43:51.915Z,16.40
2022-09-09T15:46:18.469Z,16.40
2022-09-09T15:48:47.357Z,16.40
2022-09-09T15:51:41.204Z,16.50
2022-09-09T15:54:02.441Z,16.50
2022-09-09T15:56:33.692Z,16.60
2022-09-09T15:59:00.785Z,16.70
2022-09-09T16:01:28.200Z,16.60
2022-09-09T16:03:54.953Z,16.70
2022-09-09T16:06:23.819Z,16.70
2022-09-09T16:08:53.162Z,16.70
2022-09-09T16:11:22.236Z,16.70
2022-09-09T16:13:51.285Z,16.70
2022-09-09T16:16:20.892Z,16.70
2022-09-09T16:18:49.388Z,16.70
2022-09-09T16:21:29.993Z,16.70
2022-09-09T16:23:58.096Z,16.70
2022-09-09T16:26:24.689Z,16.60
2022-09-09T16:28:51.202Z,16.60
2022-09-09T16:31:20.899Z,16.50
2022-09-09T16:33:48.617Z,16.50
2022-09-09T16:36:21.169Z,16.50
2022-09-09T16:38:47.744Z,16.50
2022-09-09T16:41:15.393Z,16.50
2022-09-09T16:43:42.666Z,16.40
2022-09-09T16:46:18.985Z,16.40
2022-09-09T16:48:47.172Z,16.30
2022-09-09T16:51:21.151Z,16.30
2022-09-09T16:53:48.110Z,16.20
2022-09-09T16:56:17.792Z,16.20
2022-09-09T16:58:46.125Z,16.20
2022-09-09T17:01:15.273Z,16.20
2022-09-09T17:03:42.034Z,16.20
2022-09-09T17:06:13.078Z,16.10
2022-09-09T17:08:40.457Z,16.00
2022-09-09T17:11:15.186Z,16.00
2022-09-09T17:13:47.043Z,16.00
2022-09-09T17:16:16.109Z,15.90
2022-09-09T17:18:42.754Z,15.80
2022-09-09T17:21:13.235Z,15.90
2022-09-09T17:23:41.083Z,15.80
2022-09-09T17:26:10.639Z,15.80
2022-09-09T17:28:39.385Z,15.70
2022-09-09T17:31:08.165Z,15.70
2022-09-09T17:33:36.963Z,15.70
2022-09-09T17:36:25.928Z,15.60
2022-09-09T17:38:53.294Z,15.60
2022-09-09T17:41:23.003Z,15.60
2022-09-09T17:43:50.521Z,15.50
2022-09-09T17:46:25.997Z,15.50
2022-09-09T17:48:57.128Z,15.40
2022-09-09T17:53:55.785Z,15.30
2022-09-09T17:56:26.047Z,15.40
2022-09-09T17:58:53.664Z,15.40
2022-09-09T18:01:28.944Z,15.20
2022-09-09T18:03:59.223Z,15.20
2022-09-09T18:06:29.156Z,15.20
2022-09-09T18:08:58.493Z,15.20
2022-09-09T18:21:18.867Z,14.90
2022-09-09T18:23:49.373Z,14.90
2022-09-09T18:26:18.982Z,14.90
2022-09-09T18:31:17.999Z,14.90
2022-09-09T18:38:44.844Z,14.70
2022-09-09T18:41:45.211Z,14.80
2022-09-09T18:44:16.439Z,14.70
2022-09-09T18:46:44.150Z,14.70
2022-09-09T18:51:40.925Z,14.60
2022-09-09T18:54:12.053Z,14.60
2022-09-09T18:59:09.040Z,14.50
2022-09-09T19:04:06.033Z,14.50
2022-09-09T19:06:36.572Z,14.40
2022-09-09T19:09:04.554Z,14.50
2022-09-09T19:11:32.088Z,14.40
2022-09-09T19:14:04.720Z,14.40
2022-09-09T19:16:33.211Z,14.50
2022-09-09T19:19:01.505Z,14.30
2022-09-09T19:21:33.976Z,14.30
2022-09-09T19:24:11.552Z,14.30
2022-09-09T19:26:40.784Z,14.30
2022-09-09T19:29:10.032Z,14.30
2022-09-09T19:31:37.690Z,14.20
2022-09-09T19:34:04.930Z,14.20
2022-09-09T19:36:31.559Z,14.20
2022-09-09T19:38:58.809Z,14.20
2022-09-09T19:41:27.639Z,14.20
2022-09-09T19:44:01.638Z,14.10
2022-09-09T19:46:34.037Z,14.10
2022-09-09T19:49:01.380Z,14.10
2022-09-09T19:51:30.067Z,14.10
2022-09-09T19:54:03.268Z,14.10
2022-09-09T19:56:31.222Z,14.00
2022-09-09T19:58:57.911Z,14.00
2022-09-09T20:01:27.271Z,14.00
2022-09-09T20:03:56.829Z,14.00
2022-09-09T20:08:53.864Z,14.10
2022-09-09T20:11:21.110Z,14.00
2022-09-09T20:16:19.184Z,14.00
2022-09-09T20:18:48.524Z,14.00
2022-09-09T20:21:19.898Z,14.00
2022-09-09T20:23:48.081Z,14.00
2022-09-09T20:26:18.099Z,14.10
2022-09-09T20:28:45.343Z,14.10
2022-09-09T20:31:18.977Z,14.10
2022-09-09T20:33:45.939Z,14.10
2022-09-09T20:36:21.509Z,14.20
2022-09-09T20:38:51.929Z,14.20
2022-09-09T20:41:21.637Z,14.20
2022-09-09T20:44:01.635Z,14.30
2022-09-09T20:46:31.595Z,14.30
2022-09-09T20:49:02.292Z,14.40
2022-09-09T20:51:32.812Z,14.30
2022-09-09T20:54:03.807Z,14.40
2022-09-09T20:56:37.543Z,14.40
2022-09-09T20:59:05.310Z,14.50
2022-09-09T21:01:32.140Z,14.50
2022-09-09T21:03:59.999Z,14.50
2022-09-09T21:06:26.652Z,14.50
2022-09-09T21:08:53.160Z,14.40
2022-09-09T21:11:20.147Z,14.60
2022-09-09T21:13:46.706Z,14.50
2022-09-09T21:16:16.565Z,14.50
2022-09-09T21:18:44.322Z,14.50
2022-09-09T21:21:11.272Z,14.50
2022-09-09T21:23:37.997Z,14.50
2022-09-09T21:26:05.157Z,14.50
2022-09-09T21:28:31.751Z,14.50
2022-09-09T21:30:58.521Z,14.60
2022-09-09T21:33:30.373Z,14.60
2022-09-09T21:36:03.823Z,14.60
2022-09-09T21:38:31.064Z,14.60
2022-09-09T21:40:57.681Z,14.50
2022-09-09T21:43:24.239Z,14.50
2022-09-09T21:45:50.879Z,14.60
2022-09-09T21:48:18.965Z,14.60
2022-09-09T21:50:47.828Z,14.60
2022-09-09T21:53:18.027Z,14.50
2022-09-09T21:55:47.694Z,14.60
2022-09-09T21:58:15.919Z,14.60
2022-09-09T22:00:45.642Z,14.50
2022-09-09T22:03:15.965Z,14.50
2022-09-09T22:05:44.841Z,14.50
2022-09-09T22:08:14.263Z,14.40
2022-09-09T22:10:45.045Z,14.50
2022-09-09T22:13:12.971Z,14.50
2022-09-09T22:15:44.353Z,14.40
2022-09-09T22:18:11.308Z,14.40
2022-09-09T22:20:43.299Z,14.40
2022-09-09T22:23:10.300Z,14.40
2022-09-09T22:25:37.987Z,14.40
2022-09-09T22:28:06.509Z,14.40
2022-09-09T22:30:33.783Z,14.40
2022-09-09T22:33:01.401Z,14.40
2022-09-09T22:35:27.973Z,14.30
2022-09-09T22:37:55.758Z,14.30
2022-09-09T22:40:22.806Z,14.30
2022-09-09T22:42:52.763Z,14.30
2022-09-09T22:45:20.737Z,14.30
2022-09-09T22:47:47.598Z,14.30
2022-09-09T22:50:14.308Z,14.20
2022-09-09T22:52:40.867Z,14.30
2022-09-09T22:55:09.196Z,14.20
2022-09-09T22:57:35.899Z,14.30
2022-09-09T23:00:03.467Z,14.20
2022-09-09T23:02:30.574Z,14.50
2022-09-09T23:05:00.492Z,14.20
2022-09-09T23:07:27.016Z,14.30
2022-09-09T23:09:53.609Z,14.20
2022-09-09T23:12:20.606Z,14.20
2022-09-09T23:14:47.212Z,14.20
2022-09-09T23:17:17.602Z,14.20
2022-09-09T23:19:44.176Z,14.20
2022-09-09T23:22:11.423Z,14.20
2022-09-09T23:24:38.027Z,14.20
2022-09-09T23:27:04.700Z,14.20
2022-09-09T23:29:31.532Z,14.20
2022-09-09T23:31:58.051Z,14.20
2022-09-09T23:34:24.755Z,14.20
2022-09-09T23:36:51.458Z,14.20
2022-09-09T23:39:18.200Z,14.20
2022-09-09T23:41:46.011Z,14.20
2022-09-09T23:44:12.763Z,14.20
2022-09-09T23:46:39.383Z,14.20
2022-09-09T23:49:08.202Z,14.10
2022-09-09T23:51:35.412Z,14.10
2022-09-09T23:54:04.621Z,14.10
2022-09-09T23:56:33.852Z,14.20
2022-09-09T23:59:01.183Z,14.10
